sensor_id;sensor_type;location;lat;lon;timestamp;P1;durP1;ratioP1;P2;durP2;ratioP2
21213;SDS011;10764;50.850;2.904;2024-01-16T00:01:18;4.90;;;1.83;;
21213;SDS011;10764;50.850;2.904;2024-01-16T00:03:46;3.78;;;1.80;;
21213;SDS011;10764;50.850;2.904;2024-01-16T00:06:14;3.80;;;1.63;;
21213;SDS011;10764;50.850;2.904;2024-01-16T00:08:42;3.60;;;2.08;;
21213;SDS011;10764;50.850;2.904;2024-01-16T00:11:09;3.85;;;1.60;;
21213;SDS011;10764;50.850;2.904;2024-01-16T00:13:37;4.35;;;1.90;;
21213;SDS011;10764;50.850;2.904;2024-01-16T00:16:04;3.58;;;1.80;;
21213;SDS011;10764;50.850;2.904;2024-01-16T00:18:31;4.57;;;2.10;;
21213;SDS011;10764;50.850;2.904;2024-01-16T00:21:00;4.95;;;2.03;;
21213;SDS011;10764;50.850;2.904;2024-01-16T00:23:28;4.63;;;2.10;;
21213;SDS011;10764;50.850;2.904;2024-01-16T00:25:58;3.95;;;1.80;;
21213;SDS011;10764;50.850;2.904;2024-01-16T00:28:26;4.03;;;2.03;;
21213;SDS011;10764;50.850;2.904;2024-01-16T00:30:53;3.20;;;1.60;;
21213;SDS011;10764;50.850;2.904;2024-01-16T00:33:20;3.97;;;1.90;;
21213;SDS011;10764;50.850;2.904;2024-01-16T00:35:48;3.60;;;1.80;;
21213;SDS011;10764;50.850;2.904;2024-01-16T00:38:16;3.80;;;1.90;;
21213;SDS011;10764;50.850;2.904;2024-01-16T00:40:43;3.88;;;1.70;;
21213;SDS011;10764;50.850;2.904;2024-01-16T00:43:10;2.75;;;1.52;;
21213;SDS011;10764;50.850;2.904;2024-01-16T00:45:39;3.72;;;1.83;;
21213;SDS011;10764;50.850;2.904;2024-01-16T00:48:07;6.63;;;2.47;;
21213;SDS011;10764;50.850;2.904;2024-01-16T00:50:37;4.40;;;1.85;;
21213;SDS011;10764;50.850;2.904;2024-01-16T00:53:04;5.20;;;2.10;;
21213;SDS011;10764;50.850;2.904;2024-01-16T00:55:32;4.25;;;2.03;;
21213;SDS011;10764;50.850;2.904;2024-01-16T00:57:59;3.47;;;1.75;;
21213;SDS011;10764;50.850;2.904;2024-01-16T01:00:27;4.63;;;2.03;;
21213;SDS011;10764;50.850;2.904;2024-01-16T01:02:57;4.25;;;1.83;;
21213;SDS011;10764;50.850;2.904;2024-01-16T01:05:27;3.30;;;1.73;;
21213;SDS011;10764;50.850;2.904;2024-01-16T01:07:55;4.20;;;2.00;;
21213;SDS011;10764;50.850;2.904;2024-01-16T01:10:23;5.00;;;2.15;;
21213;SDS011;10764;50.850;2.904;2024-01-16T01:12:50;4.15;;;1.85;;
21213;SDS011;10764;50.850;2.904;2024-01-16T01:15:20;4.70;;;2.10;;
21213;SDS011;10764;50.850;2.904;2024-01-16T01:17:48;5.03;;;2.13;;
21213;SDS011;10764;50.850;2.904;2024-01-16T01:20:17;4.03;;;1.80;;
21213;SDS011;10764;50.850;2.904;2024-01-16T01:22:45;4.63;;;1.60;;
21213;SDS011;10764;50.850;2.904;2024-01-16T01:25:13;4.23;;;1.93;;
21213;SDS011;10764;50.850;2.904;2024-01-16T01:27:40;5.40;;;2.00;;
21213;SDS011;10764;50.850;2.904;2024-01-16T01:30:07;3.90;;;1.85;;
21213;SDS011;10764;50.850;2.904;2024-01-16T01:32:39;4.50;;;1.73;;
21213;SDS011;10764;50.850;2.904;2024-01-16T01:35:06;4.95;;;1.92;;
21213;SDS011;10764;50.850;2.904;2024-01-16T01:37:34;5.10;;;1.90;;
21213;SDS011;10764;50.850;2.904;2024-01-16T01:40:01;4.50;;;1.70;;
21213;SDS011;10764;50.850;2.904;2024-01-16T01:42:29;4.07;;;1.67;;
21213;SDS011;10764;50.850;2.904;2024-01-16T01:44:56;3.97;;;1.83;;
21213;SDS011;10764;50.850;2.904;2024-01-16T01:47:24;5.73;;;2.20;;
21213;SDS011;10764;50.850;2.904;2024-01-16T01:49:51;5.70;;;1.90;;
21213;SDS011;10764;50.850;2.904;2024-01-16T01:52:20;4.72;;;2.00;;
21213;SDS011;10764;50.850;2.904;2024-01-16T01:54:47;5.13;;;2.13;;
21213;SDS011;10764;50.850;2.904;2024-01-16T01:57:15;3.83;;;2.17;;
21213;SDS011;10764;50.850;2.904;2024-01-16T01:59:42;5.13;;;2.20;;
21213;SDS011;10764;50.850;2.904;2024-01-16T02:02:10;6.05;;;3.40;;
21213;SDS011;10764;50.850;2.904;2024-01-16T02:04:38;4.05;;;2.00;;
21213;SDS011;10764;50.850;2.904;2024-01-16T02:07:07;4.53;;;2.13;;
21213;SDS011;10764;50.850;2.904;2024-01-16T02:09:34;4.70;;;2.50;;
21213;SDS011;10764;50.850;2.904;2024-01-16T02:12:03;6.15;;;3.08;;
21213;SDS011;10764;50.850;2.904;2024-01-16T02:14:30;5.13;;;2.80;;
21213;SDS011;10764;50.850;2.904;2024-01-16T02:16:58;4.20;;;2.00;;
21213;SDS011;10764;50.850;2.904;2024-01-16T02:19:25;4.20;;;1.88;;
21213;SDS011;10764;50.850;2.904;2024-01-16T02:21:53;4.25;;;2.00;;
21213;SDS011;10764;50.850;2.904;2024-01-16T02:24:23;4.22;;;2.50;;
21213;SDS011;10764;50.850;2.904;2024-01-16T02:26:51;3.43;;;2.10;;
21213;SDS011;10764;50.850;2.904;2024-01-16T02:29:18;5.10;;;3.08;;
21213;SDS011;10764;50.850;2.904;2024-01-16T02:31:45;4.28;;;1.85;;
21213;SDS011;10764;50.850;2.904;2024-01-16T02:34:13;5.57;;;3.85;;
21213;SDS011;10764;50.850;2.904;2024-01-16T02:36:41;3.65;;;1.98;;
21213;SDS011;10764;50.850;2.904;2024-01-16T02:39:08;9.05;;;8.25;;
21213;SDS011;10764;50.850;2.904;2024-01-16T02:41:36;9.55;;;8.65;;
21213;SDS011;10764;50.850;2.904;2024-01-16T02:44:03;16.88;;;15.48;;
21213;SDS011;10764;50.850;2.904;2024-01-16T02:46:30;21.63;;;19.95;;
21213;SDS011;10764;50.850;2.904;2024-01-16T02:48:59;12.05;;;10.95;;
21213;SDS011;10764;50.850;2.904;2024-01-16T02:51:26;13.88;;;12.65;;
21213;SDS011;10764;50.850;2.904;2024-01-16T02:53:54;17.20;;;15.63;;
21213;SDS011;10764;50.850;2.904;2024-01-16T02:56:21;20.25;;;18.65;;
21213;SDS011;10764;50.850;2.904;2024-01-16T02:58:48;4.30;;;2.15;;
21213;SDS011;10764;50.850;2.904;2024-01-16T03:01:16;23.25;;;21.40;;
21213;SDS011;10764;50.850;2.904;2024-01-16T03:03:43;18.27;;;16.67;;
21213;SDS011;10764;50.850;2.904;2024-01-16T03:06:20;37.05;;;34.15;;
21213;SDS011;10764;50.850;2.904;2024-01-16T03:08:48;56.25;;;51.83;;
21213;SDS011;10764;50.850;2.904;2024-01-16T03:11:16;4.20;;;3.07;;
21213;SDS011;10764;50.850;2.904;2024-01-16T03:13:43;26.37;;;24.07;;
21213;SDS011;10764;50.850;2.904;2024-01-16T03:16:11;48.60;;;44.95;;
21213;SDS011;10764;50.850;2.904;2024-01-16T03:18:38;60.15;;;55.58;;
21213;SDS011;10764;50.850;2.904;2024-01-16T03:21:06;66.72;;;61.72;;
21213;SDS011;10764;50.850;2.904;2024-01-16T03:23:33;89.97;;;83.05;;
21213;SDS011;10764;50.850;2.904;2024-01-16T03:26:01;72.10;;;66.60;;
21213;SDS011;10764;50.850;2.904;2024-01-16T03:28:30;76.05;;;70.28;;
21213;SDS011;10764;50.850;2.904;2024-01-16T03:30:57;13.50;;;12.38;;
21213;SDS011;10764;50.850;2.904;2024-01-16T03:33:25;53.42;;;49.42;;
21213;SDS011;10764;50.850;2.904;2024-01-16T03:35:52;53.72;;;49.47;;
21213;SDS011;10764;50.850;2.904;2024-01-16T03:38:19;119.03;;;109.93;;
21213;SDS011;10764;50.850;2.904;2024-01-16T03:40:47;105.93;;;97.68;;
21213;SDS011;10764;50.850;2.904;2024-01-16T03:43:14;117.47;;;108.20;;
21213;SDS011;10764;50.850;2.904;2024-01-16T03:45:42;102.93;;;95.13;;
21213;SDS011;10764;50.850;2.904;2024-01-16T03:48:10;126.47;;;116.40;;
21213;SDS011;10764;50.850;2.904;2024-01-16T03:50:41;106.20;;;98.05;;
21213;SDS011;10764;50.850;2.904;2024-01-16T03:53:10;125.32;;;115.60;;
21213;SDS011;10764;50.850;2.904;2024-01-16T03:55:37;125.18;;;115.32;;
21213;SDS011;10764;50.850;2.904;2024-01-16T03:58:05;122.13;;;112.60;;
21213;SDS011;10764;50.850;2.904;2024-01-16T04:00:36;124.43;;;114.77;;
21213;SDS011;10764;50.850;2.904;2024-01-16T04:03:03;124.22;;;114.50;;
21213;SDS011;10764;50.850;2.904;2024-01-16T04:05:31;144.70;;;132.67;;
21213;SDS011;10764;50.850;2.904;2024-01-16T04:07:59;148.37;;;136.47;;
21213;SDS011;10764;50.850;2.904;2024-01-16T04:10:26;136.93;;;125.88;;
21213;SDS011;10764;50.850;2.904;2024-01-16T04:12:53;172.15;;;157.85;;
21213;SDS011;10764;50.850;2.904;2024-01-16T04:15:22;173.57;;;159.23;;
21213;SDS011;10764;50.850;2.904;2024-01-16T04:17:50;166.85;;;153.15;;
21213;SDS011;10764;50.850;2.904;2024-01-16T04:20:17;136.38;;;125.57;;
21213;SDS011;10764;50.850;2.904;2024-01-16T04:22:45;45.88;;;42.45;;
21213;SDS011;10764;50.850;2.904;2024-01-16T04:25:12;161.02;;;147.90;;
21213;SDS011;10764;50.850;2.904;2024-01-16T04:27:40;132.60;;;122.20;;
21213;SDS011;10764;50.850;2.904;2024-01-16T04:30:08;113.93;;;105.07;;
21213;SDS011;10764;50.850;2.904;2024-01-16T04:32:35;112.80;;;104.10;;
21213;SDS011;10764;50.850;2.904;2024-01-16T04:35:03;17.48;;;16.08;;
21213;SDS011;10764;50.850;2.904;2024-01-16T04:37:31;30.00;;;27.67;;
21213;SDS011;10764;50.850;2.904;2024-01-16T04:39:58;71.10;;;65.72;;
21213;SDS011;10764;50.850;2.904;2024-01-16T04:42:26;103.90;;;95.97;;
21213;SDS011;10764;50.850;2.904;2024-01-16T04:44:53;108.30;;;100.05;;
21213;SDS011;10764;50.850;2.904;2024-01-16T04:47:21;125.20;;;115.45;;
21213;SDS011;10764;50.850;2.904;2024-01-16T04:49:48;139.95;;;128.88;;
21213;SDS011;10764;50.850;2.904;2024-01-16T04:52:16;110.18;;;101.75;;
21213;SDS011;10764;50.850;2.904;2024-01-16T04:54:43;98.33;;;90.93;;
21213;SDS011;10764;50.850;2.904;2024-01-16T04:57:12;99.45;;;91.90;;
21213;SDS011;10764;50.850;2.904;2024-01-16T04:59:39;33.15;;;30.50;;
21213;SDS011;10764;50.850;2.904;2024-01-16T05:02:06;15.93;;;14.57;;
21213;SDS011;10764;50.850;2.904;2024-01-16T05:04:36;20.85;;;19.30;;
21213;SDS011;10764;50.850;2.904;2024-01-16T05:07:04;9.13;;;8.23;;
21213;SDS011;10764;50.850;2.904;2024-01-16T05:09:31;9.95;;;9.10;;
21213;SDS011;10764;50.850;2.904;2024-01-16T05:11:59;12.65;;;11.63;;
21213;SDS011;10764;50.850;2.904;2024-01-16T05:14:26;16.33;;;15.10;;
21213;SDS011;10764;50.850;2.904;2024-01-16T05:16:53;15.55;;;14.25;;
21213;SDS011;10764;50.850;2.904;2024-01-16T05:19:21;109.38;;;101.03;;
21213;SDS011;10764;50.850;2.904;2024-01-16T05:21:49;143.50;;;132.00;;
21213;SDS011;10764;50.850;2.904;2024-01-16T05:24:16;167.20;;;153.43;;
21213;SDS011;10764;50.850;2.904;2024-01-16T05:26:43;174.50;;;160.13;;
21213;SDS011;10764;50.850;2.904;2024-01-16T05:29:11;203.07;;;185.93;;
21213;SDS011;10764;50.850;2.904;2024-01-16T05:31:41;218.73;;;200.30;;
21213;SDS011;10764;50.850;2.904;2024-01-16T05:34:09;204.80;;;187.73;;
21213;SDS011;10764;50.850;2.904;2024-01-16T05:36:36;194.57;;;178.27;;
21213;SDS011;10764;50.850;2.904;2024-01-16T05:39:04;209.88;;;192.20;;
21213;SDS011;10764;50.850;2.904;2024-01-16T05:41:34;268.52;;;245.38;;
21213;SDS011;10764;50.850;2.904;2024-01-16T05:44:02;374.55;;;341.50;;
21213;SDS011;10764;50.850;2.904;2024-01-16T05:46:33;389.10;;;354.87;;
21213;SDS011;10764;50.850;2.904;2024-01-16T05:49:00;455.92;;;415.73;;
21213;SDS011;10764;50.850;2.904;2024-01-16T05:51:28;567.88;;;517.67;;
21213;SDS011;10764;50.850;2.904;2024-01-16T05:53:56;656.72;;;599.33;;
21213;SDS011;10764;50.850;2.904;2024-01-16T05:56:24;640.58;;;584.70;;
21213;SDS011;10764;50.850;2.904;2024-01-16T05:58:51;571.22;;;520.90;;
21213;SDS011;10764;50.850;2.904;2024-01-16T06:01:18;699.00;;;638.85;;
21213;SDS011;10764;50.850;2.904;2024-01-16T06:03:46;673.70;;;615.50;;
21213;SDS011;10764;50.850;2.904;2024-01-16T06:06:16;794.03;;;726.50;;
21213;SDS011;10764;50.850;2.904;2024-01-16T06:08:43;908.22;;;832.28;;
21213;SDS011;10764;50.850;2.904;2024-01-16T06:11:11;1027.93;;;943.45;;
21213;SDS011;10764;50.850;2.904;2024-01-16T06:13:42;1166.72;;;999.90;;
21213;SDS011;10764;50.850;2.904;2024-01-16T06:16:09;390.83;;;355.65;;
21213;SDS011;10764;50.850;2.904;2024-01-16T06:18:37;455.38;;;412.05;;
21213;SDS011;10764;50.850;2.904;2024-01-16T06:21:04;1267.95;;;999.90;;
21213;SDS011;10764;50.850;2.904;2024-01-16T06:23:32;889.63;;;811.97;;
21213;SDS011;10764;50.850;2.904;2024-01-16T06:25:59;326.80;;;298.02;;
21213;SDS011;10764;50.850;2.904;2024-01-16T06:28:27;576.92;;;525.88;;
21213;SDS011;10764;50.850;2.904;2024-01-16T06:30:54;35.07;;;32.63;;
21213;SDS011;10764;50.850;2.904;2024-01-16T06:33:21;23.43;;;21.60;;
21213;SDS011;10764;50.850;2.904;2024-01-16T06:35:49;23.67;;;21.97;;
21213;SDS011;10764;50.850;2.904;2024-01-16T06:38:19;18.90;;;17.50;;
21213;SDS011;10764;50.850;2.904;2024-01-16T06:40:47;29.70;;;27.52;;
21213;SDS011;10764;50.850;2.904;2024-01-16T06:43:14;99.45;;;91.95;;
21213;SDS011;10764;50.850;2.904;2024-01-16T06:45:42;679.55;;;621.00;;
21213;SDS011;10764;50.850;2.904;2024-01-16T06:48:11;791.17;;;724.40;;
21213;SDS011;10764;50.850;2.904;2024-01-16T06:50:38;908.83;;;833.13;;
21213;SDS011;10764;50.850;2.904;2024-01-16T06:53:06;795.95;;;728.58;;
21213;SDS011;10764;50.850;2.904;2024-01-16T06:55:33;805.58;;;737.53;;
21213;SDS011;10764;50.850;2.904;2024-01-16T06:58:00;835.43;;;765.30;;
21213;SDS011;10764;50.850;2.904;2024-01-16T07:00:28;1002.80;;;920.67;;
21213;SDS011;10764;50.850;2.904;2024-01-16T07:02:56;923.85;;;846.58;;
21213;SDS011;10764;50.850;2.904;2024-01-16T07:05:23;93.03;;;85.85;;
21213;SDS011;10764;50.850;2.904;2024-01-16T07:07:51;159.38;;;146.18;;
21213;SDS011;10764;50.850;2.904;2024-01-16T07:10:18;165.80;;;152.00;;
21213;SDS011;10764;50.850;2.904;2024-01-16T07:12:49;230.50;;;210.63;;
21213;SDS011;10764;50.850;2.904;2024-01-16T07:15:18;196.52;;;180.05;;
21213;SDS011;10764;50.850;2.904;2024-01-16T07:17:46;183.82;;;168.48;;
21213;SDS011;10764;50.850;2.904;2024-01-16T07:20:13;184.55;;;169.02;;
21213;SDS011;10764;50.850;2.904;2024-01-16T07:22:41;213.48;;;195.68;;
21213;SDS011;10764;50.850;2.904;2024-01-16T07:25:08;70.85;;;65.50;;
21213;SDS011;10764;50.850;2.904;2024-01-16T07:27:37;100.68;;;92.90;;
21213;SDS011;10764;50.850;2.904;2024-01-16T07:30:04;43.93;;;40.53;;
21213;SDS011;10764;50.850;2.904;2024-01-16T07:32:33;99.18;;;91.45;;
21213;SDS011;10764;50.850;2.904;2024-01-16T07:35:01;74.78;;;68.95;;
21213;SDS011;10764;50.850;2.904;2024-01-16T07:37:29;60.50;;;56.00;;
21213;SDS011;10764;50.850;2.904;2024-01-16T07:39:57;54.73;;;50.50;;
21213;SDS011;10764;50.850;2.904;2024-01-16T07:42:25;46.83;;;43.42;;
21213;SDS011;10764;50.850;2.904;2024-01-16T07:45:03;167.77;;;153.23;;
21213;SDS011;10764;50.850;2.904;2024-01-16T07:47:31;70.05;;;64.43;;
21213;SDS011;10764;50.850;2.904;2024-01-16T07:49:59;105.00;;;96.82;;
21213;SDS011;10764;50.850;2.904;2024-01-16T07:52:32;5.72;;;3.38;;
21213;SDS011;10764;50.850;2.904;2024-01-16T07:54:59;3.13;;;1.92;;
21213;SDS011;10764;50.850;2.904;2024-01-16T07:57:26;4.80;;;1.95;;
21213;SDS011;10764;50.850;2.904;2024-01-16T07:59:53;3.55;;;1.70;;
21213;SDS011;10764;50.850;2.904;2024-01-16T08:02:21;10.65;;;3.00;;
21213;SDS011;10764;50.850;2.904;2024-01-16T08:04:50;11.13;;;3.45;;
21213;SDS011;10764;50.850;2.904;2024-01-16T08:07:17;16.90;;;3.35;;
21213;SDS011;10764;50.850;2.904;2024-01-16T08:09:45;14.75;;;3.55;;
21213;SDS011;10764;50.850;2.904;2024-01-16T08:12:12;14.35;;;3.17;;
21213;SDS011;10764;50.850;2.904;2024-01-16T08:14:40;12.00;;;2.90;;
21213;SDS011;10764;50.850;2.904;2024-01-16T08:17:09;12.82;;;2.90;;
21213;SDS011;10764;50.850;2.904;2024-01-16T08:19:37;15.27;;;3.20;;
21213;SDS011;10764;50.850;2.904;2024-01-16T08:22:04;10.27;;;3.00;;
21213;SDS011;10764;50.850;2.904;2024-01-16T08:24:36;12.02;;;3.20;;
21213;SDS011;10764;50.850;2.904;2024-01-16T08:27:04;9.30;;;2.55;;
21213;SDS011;10764;50.850;2.904;2024-01-16T08:29:31;11.18;;;3.15;;
21213;SDS011;10764;50.850;2.904;2024-01-16T08:31:58;11.07;;;2.72;;
21213;SDS011;10764;50.850;2.904;2024-01-16T08:34:28;11.13;;;3.05;;
21213;SDS011;10764;50.850;2.904;2024-01-16T08:36:55;8.65;;;2.80;;
21213;SDS011;10764;50.850;2.904;2024-01-16T08:39:23;8.52;;;2.70;;
21213;SDS011;10764;50.850;2.904;2024-01-16T08:41:52;8.50;;;2.78;;
21213;SDS011;10764;50.850;2.904;2024-01-16T08:44:19;8.32;;;2.97;;
21213;SDS011;10764;50.850;2.904;2024-01-16T08:46:47;11.15;;;3.00;;
21213;SDS011;10764;50.850;2.904;2024-01-16T08:49:14;7.38;;;2.10;;
21213;SDS011;10764;50.850;2.904;2024-01-16T08:51:46;9.57;;;2.53;;
21213;SDS011;10764;50.850;2.904;2024-01-16T08:54:13;9.70;;;2.53;;
21213;SDS011;10764;50.850;2.904;2024-01-16T08:56:41;6.75;;;2.47;;
21213;SDS011;10764;50.850;2.904;2024-01-16T08:59:08;9.10;;;2.40;;
21213;SDS011;10764;50.850;2.904;2024-01-16T09:01:36;9.43;;;2.70;;
21213;SDS011;10764;50.850;2.904;2024-01-16T09:04:04;5.35;;;2.15;;
21213;SDS011;10764;50.850;2.904;2024-01-16T09:06:31;6.95;;;2.47;;
21213;SDS011;10764;50.850;2.904;2024-01-16T09:08:59;6.28;;;2.42;;
21213;SDS011;10764;50.850;2.904;2024-01-16T09:11:27;7.05;;;2.58;;
21213;SDS011;10764;50.850;2.904;2024-01-16T09:13:54;7.28;;;2.55;;
21213;SDS011;10764;50.850;2.904;2024-01-16T09:16:21;7.40;;;2.70;;
21213;SDS011;10764;50.850;2.904;2024-01-16T09:18:49;6.93;;;2.58;;
21213;SDS011;10764;50.850;2.904;2024-01-16T09:21:16;6.78;;;2.80;;
21213;SDS011;10764;50.850;2.904;2024-01-16T09:23:44;8.93;;;3.58;;
21213;SDS011;10764;50.850;2.904;2024-01-16T09:26:11;6.05;;;2.33;;
21213;SDS011;10764;50.850;2.904;2024-01-16T09:28:38;7.80;;;3.25;;
21213;SDS011;10764;50.850;2.904;2024-01-16T09:31:07;7.53;;;2.50;;
21213;SDS011;10764;50.850;2.904;2024-01-16T09:33:34;9.13;;;3.90;;
21213;SDS011;10764;50.850;2.904;2024-01-16T09:36:02;11.60;;;9.57;;
21213;SDS011;10764;50.850;2.904;2024-01-16T09:38:30;92.90;;;85.57;;
21213;SDS011;10764;50.850;2.904;2024-01-16T09:40:58;12.25;;;7.97;;
21213;SDS011;10764;50.850;2.904;2024-01-16T09:43:28;6.90;;;3.88;;
21213;SDS011;10764;50.850;2.904;2024-01-16T09:45:57;7.60;;;4.57;;
21213;SDS011;10764;50.850;2.904;2024-01-16T09:48:29;8.98;;;3.80;;
21213;SDS011;10764;50.850;2.904;2024-01-16T09:50:58;8.03;;;4.83;;
21213;SDS011;10764;50.850;2.904;2024-01-16T09:53:26;9.67;;;6.10;;
21213;SDS011;10764;50.850;2.904;2024-01-16T09:55:54;46.03;;;42.33;;
21213;SDS011;10764;50.850;2.904;2024-01-16T09:58:23;16.63;;;15.23;;
21213;SDS011;10764;50.850;2.904;2024-01-16T10:00:51;13.85;;;12.45;;
21213;SDS011;10764;50.850;2.904;2024-01-16T10:03:19;15.57;;;13.85;;
21213;SDS011;10764;50.850;2.904;2024-01-16T10:05:48;35.33;;;32.60;;
21213;SDS011;10764;50.850;2.904;2024-01-16T10:08:16;13.73;;;12.57;;
21213;SDS011;10764;50.850;2.904;2024-01-16T10:10:47;57.70;;;53.20;;
21213;SDS011;10764;50.850;2.904;2024-01-16T10:13:18;62.30;;;57.40;;
21213;SDS011;10764;50.850;2.904;2024-01-16T10:15:48;32.97;;;30.55;;
21213;SDS011;10764;50.850;2.904;2024-01-16T10:18:26;34.43;;;31.53;;
21213;SDS011;10764;50.850;2.904;2024-01-16T10:20:54;78.73;;;72.70;;
21213;SDS011;10764;50.850;2.904;2024-01-16T10:23:31;115.03;;;105.87;;
21213;SDS011;10764;50.850;2.904;2024-01-16T10:26:12;243.75;;;222.75;;
21213;SDS011;10764;50.850;2.904;2024-01-16T10:28:41;29.48;;;26.90;;
21213;SDS011;10764;50.850;2.904;2024-01-16T10:31:09;21.30;;;19.50;;
21213;SDS011;10764;50.850;2.904;2024-01-16T10:33:38;96.03;;;88.53;;
21213;SDS011;10764;50.850;2.904;2024-01-16T10:38:40;35.38;;;32.35;;
21213;SDS011;10764;50.850;2.904;2024-01-16T10:41:08;28.70;;;26.40;;
21213;SDS011;10764;50.850;2.904;2024-01-16T10:43:37;114.17;;;105.33;;
21213;SDS011;10764;50.850;2.904;2024-01-16T10:48:35;19.08;;;17.17;;
21213;SDS011;10764;50.850;2.904;2024-01-16T10:51:02;10.30;;;3.40;;
21213;SDS011;10764;50.850;2.904;2024-01-16T10:53:33;7.20;;;4.25;;
21213;SDS011;10764;50.850;2.904;2024-01-16T10:56:01;6.00;;;3.53;;
21213;SDS011;10764;50.850;2.904;2024-01-16T10:58:30;7.72;;;3.08;;
21213;SDS011;10764;50.850;2.904;2024-01-16T11:01:01;5.30;;;2.97;;
21213;SDS011;10764;50.850;2.904;2024-01-16T11:06:00;6.43;;;4.82;;
21213;SDS011;10764;50.850;2.904;2024-01-16T11:08:30;14.52;;;13.05;;
21213;SDS011;10764;50.850;2.904;2024-01-16T11:10:59;16.73;;;15.43;;
21213;SDS011;10764;50.850;2.904;2024-01-16T11:13:27;65.10;;;60.10;;
21213;SDS011;10764;50.850;2.904;2024-01-16T11:15:55;146.87;;;134.17;;
21213;SDS011;10764;50.850;2.904;2024-01-16T11:18:23;118.53;;;109.20;;
21213;SDS011;10764;50.850;2.904;2024-01-16T11:20:51;258.55;;;236.43;;
21213;SDS011;10764;50.850;2.904;2024-01-16T11:23:33;549.00;;;499.10;;
21213;SDS011;10764;50.850;2.904;2024-01-16T11:28:50;4.83;;;2.30;;
21213;SDS011;10764;50.850;2.904;2024-01-16T11:31:27;4.67;;;2.03;;
21213;SDS011;10764;50.850;2.904;2024-01-16T11:33:54;4.70;;;2.40;;
21213;SDS011;10764;50.850;2.904;2024-01-16T11:39:09;3.97;;;2.00;;
21213;SDS011;10764;50.850;2.904;2024-01-16T11:41:52;13.45;;;5.20;;
21213;SDS011;10764;50.850;2.904;2024-01-16T11:47:07;3.47;;;1.98;;
21213;SDS011;10764;50.850;2.904;2024-01-16T11:49:35;5.30;;;2.55;;
21213;SDS011;10764;50.850;2.904;2024-01-16T11:52:04;4.78;;;2.30;;
21213;SDS011;10764;50.850;2.904;2024-01-16T11:54:32;5.07;;;2.28;;
21213;SDS011;10764;50.850;2.904;2024-01-16T11:57:19;4.80;;;1.90;;
21213;SDS011;10764;50.850;2.904;2024-01-16T12:00:16;7.05;;;3.47;;
21213;SDS011;10764;50.850;2.904;2024-01-16T12:02:49;6.40;;;2.87;;
21213;SDS011;10764;50.850;2.904;2024-01-16T12:05:17;5.03;;;2.33;;
21213;SDS011;10764;50.850;2.904;2024-01-16T12:07:45;5.25;;;2.40;;
21213;SDS011;10764;50.850;2.904;2024-01-16T12:10:18;5.13;;;2.40;;
21213;SDS011;10764;50.850;2.904;2024-01-16T12:12:46;6.32;;;2.70;;
21213;SDS011;10764;50.850;2.904;2024-01-16T12:15:18;4.80;;;2.17;;
21213;SDS011;10764;50.850;2.904;2024-01-16T12:18:01;6.63;;;2.95;;
21213;SDS011;10764;50.850;2.904;2024-01-16T12:20:31;5.83;;;2.77;;
21213;SDS011;10764;50.850;2.904;2024-01-16T12:23:00;5.30;;;2.50;;
21213;SDS011;10764;50.850;2.904;2024-01-16T12:25:28;6.60;;;2.65;;
21213;SDS011;10764;50.850;2.904;2024-01-16T12:28:15;4.30;;;2.20;;
21213;SDS011;10764;50.850;2.904;2024-01-16T12:30:58;5.90;;;2.40;;
21213;SDS011;10764;50.850;2.904;2024-01-16T12:33:27;4.20;;;2.22;;
21213;SDS011;10764;50.850;2.904;2024-01-16T12:36:02;4.80;;;2.25;;
21213;SDS011;10764;50.850;2.904;2024-01-16T12:38:32;5.60;;;2.47;;
21213;SDS011;10764;50.850;2.904;2024-01-16T12:40:59;4.90;;;2.30;;
21213;SDS011;10764;50.850;2.904;2024-01-16T12:43:29;4.93;;;2.13;;
21213;SDS011;10764;50.850;2.904;2024-01-16T12:45:57;3.67;;;2.05;;
21213;SDS011;10764;50.850;2.904;2024-01-16T12:48:26;7.25;;;2.70;;
21213;SDS011;10764;50.850;2.904;2024-01-16T12:51:00;4.43;;;2.23;;
21213;SDS011;10764;50.850;2.904;2024-01-16T12:53:33;4.30;;;2.30;;
21213;SDS011;10764;50.850;2.904;2024-01-16T12:56:03;3.35;;;1.90;;
21213;SDS011;10764;50.850;2.904;2024-01-16T12:58:34;7.17;;;2.20;;
21213;SDS011;10764;50.850;2.904;2024-01-16T13:01:23;3.30;;;1.90;;
21213;SDS011;10764;50.850;2.904;2024-01-16T13:04:05;4.07;;;1.90;;
21213;SDS011;10764;50.850;2.904;2024-01-16T13:06:32;3.55;;;1.77;;
21213;SDS011;10764;50.850;2.904;2024-01-16T13:09:07;3.42;;;1.95;;
21213;SDS011;10764;50.850;2.904;2024-01-16T13:11:54;4.00;;;1.70;;
21213;SDS011;10764;50.850;2.904;2024-01-16T13:14:24;5.50;;;2.05;;
21213;SDS011;10764;50.850;2.904;2024-01-16T13:16:52;3.53;;;1.63;;
21213;SDS011;10764;50.850;2.904;2024-01-16T13:19:21;3.50;;;1.87;;
21213;SDS011;10764;50.850;2.904;2024-01-16T13:21:49;3.05;;;1.63;;
21213;SDS011;10764;50.850;2.904;2024-01-16T13:24:17;3.63;;;1.77;;
21213;SDS011;10764;50.850;2.904;2024-01-16T13:26:50;4.30;;;1.92;;
21213;SDS011;10764;50.850;2.904;2024-01-16T13:29:18;3.08;;;1.63;;
21213;SDS011;10764;50.850;2.904;2024-01-16T13:31:46;3.30;;;1.80;;
21213;SDS011;10764;50.850;2.904;2024-01-16T13:34:14;3.28;;;1.65;;
21213;SDS011;10764;50.850;2.904;2024-01-16T13:36:45;8.00;;;3.43;;
21213;SDS011;10764;50.850;2.904;2024-01-16T13:39:32;3.50;;;1.70;;
21213;SDS011;10764;50.850;2.904;2024-01-16T13:42:04;5.40;;;2.10;;
21213;SDS011;10764;50.850;2.904;2024-01-16T13:44:33;4.93;;;2.33;;
21213;SDS011;10764;50.850;2.904;2024-01-16T13:47:00;4.32;;;1.88;;
21213;SDS011;10764;50.850;2.904;2024-01-16T13:49:37;3.53;;;1.65;;
21213;SDS011;10764;50.850;2.904;2024-01-16T13:52:06;4.38;;;1.80;;
21213;SDS011;10764;50.850;2.904;2024-01-16T13:54:35;5.72;;;2.13;;
21213;SDS011;10764;50.850;2.904;2024-01-16T13:57:03;3.53;;;1.60;;
21213;SDS011;10764;50.850;2.904;2024-01-16T13:59:35;4.45;;;2.08;;
21213;SDS011;10764;50.850;2.904;2024-01-16T14:02:03;3.40;;;1.75;;
21213;SDS011;10764;50.850;2.904;2024-01-16T14:04:35;4.32;;;1.90;;
21213;SDS011;10764;50.850;2.904;2024-01-16T14:07:03;4.53;;;1.95;;
21213;SDS011;10764;50.850;2.904;2024-01-16T14:09:40;3.80;;;2.00;;
21213;SDS011;10764;50.850;2.904;2024-01-16T14:12:09;4.68;;;2.00;;
21213;SDS011;10764;50.850;2.904;2024-01-16T14:14:38;4.17;;;2.00;;
21213;SDS011;10764;50.850;2.904;2024-01-16T14:17:06;3.33;;;1.63;;
21213;SDS011;10764;50.850;2.904;2024-01-16T14:19:34;3.73;;;1.77;;
21213;SDS011;10764;50.850;2.904;2024-01-16T14:22:02;5.15;;;2.15;;
21213;SDS011;10764;50.850;2.904;2024-01-16T14:24:29;5.18;;;2.00;;
21213;SDS011;10764;50.850;2.904;2024-01-16T14:26:56;4.43;;;1.88;;
21213;SDS011;10764;50.850;2.904;2024-01-16T14:29:24;4.57;;;2.00;;
21213;SDS011;10764;50.850;2.904;2024-01-16T14:31:53;13.10;;;4.88;;
21213;SDS011;10764;50.850;2.904;2024-01-16T14:34:22;4.88;;;2.03;;
21213;SDS011;10764;50.850;2.904;2024-01-16T14:36:50;5.35;;;2.47;;
21213;SDS011;10764;50.850;2.904;2024-01-16T14:39:17;5.43;;;2.50;;
21213;SDS011;10764;50.850;2.904;2024-01-16T14:41:52;6.33;;;2.27;;
21213;SDS011;10764;50.850;2.904;2024-01-16T14:44:19;4.47;;;2.10;;
21213;SDS011;10764;50.850;2.904;2024-01-16T14:46:47;7.50;;;6.32;;
21213;SDS011;10764;50.850;2.904;2024-01-16T14:49:18;4.38;;;1.90;;
21213;SDS011;10764;50.850;2.904;2024-01-16T14:51:47;3.25;;;1.65;;
21213;SDS011;10764;50.850;2.904;2024-01-16T14:54:15;4.70;;;2.10;;
21213;SDS011;10764;50.850;2.904;2024-01-16T14:56:43;4.63;;;2.00;;